sensor_id;sensor_type;location;lat;lon;timestamp;P1;durP1;ratioP1;P2;durP2;ratioP2
60354;SDS011;46198;51.464;-0.066;2023-01-28T00:01:34;15.23;;;7.70;;
60354;SDS011;46198;51.464;-0.066;2023-01-28T00:04:02;14.13;;;7.30;;
60354;SDS011;46198;51.464;-0.066;2023-01-28T00:06:30;13.00;;;6.87;;
60354;SDS011;46198;51.464;-0.066;2023-01-28T00:08:58;15.00;;;6.80;;
60354;SDS011;46198;51.464;-0.066;2023-01-28T00:11:27;11.40;;;6.63;;
60354;SDS011;46198;51.464;-0.066;2023-01-28T00:13:56;15.67;;;6.73;;
60354;SDS011;46198;51.464;-0.066;2023-01-28T00:16:28;12.80;;;6.43;;
60354;SDS011;46198;51.464;-0.066;2023-01-28T00:18:57;13.73;;;6.17;;
60354;SDS011;46198;51.464;-0.066;2023-01-28T00:21:25;15.63;;;7.33;;
60354;SDS011;46198;51.464;-0.066;2023-01-28T00:23:53;13.37;;;6.47;;
60354;SDS011;46198;51.464;-0.066;2023-01-28T00:26:23;17.43;;;6.37;;
60354;SDS011;46198;51.464;-0.066;2023-01-28T00:28:53;17.37;;;6.47;;
60354;SDS011;46198;51.464;-0.066;2023-01-28T00:31:21;20.00;;;6.53;;
60354;SDS011;46198;51.464;-0.066;2023-01-28T00:33:54;13.60;;;5.87;;
60354;SDS011;46198;51.464;-0.066;2023-01-28T00:36:23;12.77;;;5.43;;
60354;SDS011;46198;51.464;-0.066;2023-01-28T00:38:53;9.48;;;5.57;;
60354;SDS011;46198;51.464;-0.066;2023-01-28T00:41:24;14.30;;;6.40;;
60354;SDS011;46198;51.464;-0.066;2023-01-28T00:43:56;12.53;;;6.80;;
60354;SDS011;46198;51.464;-0.066;2023-01-28T00:46:25;12.53;;;5.63;;
60354;SDS011;46198;51.464;-0.066;2023-01-28T00:48:55;13.03;;;5.80;;
60354;SDS011;46198;51.464;-0.066;2023-01-28T00:51:23;15.37;;;5.87;;
60354;SDS011;46198;51.464;-0.066;2023-01-28T00:53:51;13.63;;;5.80;;
60354;SDS011;46198;51.464;-0.066;2023-01-28T00:56:19;11.73;;;5.40;;
60354;SDS011;46198;51.464;-0.066;2023-01-28T00:58:47;18.23;;;6.10;;
60354;SDS011;46198;51.464;-0.066;2023-01-28T01:01:16;18.70;;;5.27;;
60354;SDS011;46198;51.464;-0.066;2023-01-28T01:03:48;10.23;;;5.67;;
60354;SDS011;46198;51.464;-0.066;2023-01-28T01:06:24;16.60;;;6.17;;
60354;SDS011;46198;51.464;-0.066;2023-01-28T01:08:52;9.73;;;5.03;;
60354;SDS011;46198;51.464;-0.066;2023-01-28T01:11:20;10.57;;;4.93;;
60354;SDS011;46198;51.464;-0.066;2023-01-28T01:13:49;11.37;;;5.60;;
60354;SDS011;46198;51.464;-0.066;2023-01-28T01:16:20;10.63;;;6.00;;
60354;SDS011;46198;51.464;-0.066;2023-01-28T01:18:50;13.07;;;6.00;;
60354;SDS011;46198;51.464;-0.066;2023-01-28T01:21:20;12.33;;;5.93;;
60354;SDS011;46198;51.464;-0.066;2023-01-28T01:23:50;11.23;;;5.30;;
60354;SDS011;46198;51.464;-0.066;2023-01-28T01:26:20;15.53;;;5.50;;
60354;SDS011;46198;51.464;-0.066;2023-01-28T01:28:49;8.43;;;4.67;;
60354;SDS011;46198;51.464;-0.066;2023-01-28T01:31:18;14.37;;;4.73;;
60354;SDS011;46198;51.464;-0.066;2023-01-28T01:33:48;13.27;;;4.30;;
60354;SDS011;46198;51.464;-0.066;2023-01-28T01:36:18;12.57;;;4.17;;
60354;SDS011;46198;51.464;-0.066;2023-01-28T01:38:51;13.33;;;5.13;;
60354;SDS011;46198;51.464;-0.066;2023-01-28T01:41:23;9.87;;;4.83;;
60354;SDS011;46198;51.464;-0.066;2023-01-28T01:43:54;12.20;;;4.40;;
60354;SDS011;46198;51.464;-0.066;2023-01-28T01:46:26;10.47;;;4.10;;
60354;SDS011;46198;51.464;-0.066;2023-01-28T01:49:01;10.03;;;3.90;;
60354;SDS011;46198;51.464;-0.066;2023-01-28T01:51:34;18.53;;;4.70;;
60354;SDS011;46198;51.464;-0.066;2023-01-28T01:54:05;9.23;;;4.10;;
60354;SDS011;46198;51.464;-0.066;2023-01-28T01:56:36;10.23;;;4.10;;
60354;SDS011;46198;51.464;-0.066;2023-01-28T01:59:08;7.90;;;4.00;;
60354;SDS011;46198;51.464;-0.066;2023-01-28T02:01:38;16.30;;;4.47;;
60354;SDS011;46198;51.464;-0.066;2023-01-28T02:04:09;8.53;;;4.20;;
60354;SDS011;46198;51.464;-0.066;2023-01-28T02:06:44;8.53;;;3.83;;
60354;SDS011;46198;51.464;-0.066;2023-01-28T02:09:26;8.87;;;4.10;;
60354;SDS011;46198;51.464;-0.066;2023-01-28T02:11:56;8.63;;;3.37;;
60354;SDS011;46198;51.464;-0.066;2023-01-28T02:14:28;5.47;;;2.67;;
60354;SDS011;46198;51.464;-0.066;2023-01-28T02:16:59;9.23;;;2.53;;
60354;SDS011;46198;51.464;-0.066;2023-01-28T02:19:31;7.20;;;2.23;;
60354;SDS011;46198;51.464;-0.066;2023-01-28T02:22:08;6.33;;;2.50;;
60354;SDS011;46198;51.464;-0.066;2023-01-28T02:25:10;8.40;;;3.03;;
60354;SDS011;46198;51.464;-0.066;2023-01-28T02:28:08;7.80;;;2.83;;
60354;SDS011;46198;51.464;-0.066;2023-01-28T02:30:46;9.37;;;3.07;;
60354;SDS011;46198;51.464;-0.066;2023-01-28T02:33:22;6.37;;;3.03;;
60354;SDS011;46198;51.464;-0.066;2023-01-28T02:35:56;10.20;;;3.10;;
60354;SDS011;46198;51.464;-0.066;2023-01-28T02:38:31;7.70;;;2.97;;
60354;SDS011;46198;51.464;-0.066;2023-01-28T02:41:07;9.67;;;3.60;;
60354;SDS011;46198;51.464;-0.066;2023-01-28T02:43:43;6.47;;;2.20;;
60354;SDS011;46198;51.464;-0.066;2023-01-28T02:46:20;5.03;;;1.63;;
60354;SDS011;46198;51.464;-0.066;2023-01-28T02:49:17;4.13;;;1.43;;
60354;SDS011;46198;51.464;-0.066;2023-01-28T02:51:52;5.03;;;1.50;;
60354;SDS011;46198;51.464;-0.066;2023-01-28T02:54:32;4.63;;;1.87;;
60354;SDS011;46198;51.464;-0.066;2023-01-28T02:57:06;6.27;;;1.77;;
60354;SDS011;46198;51.464;-0.066;2023-01-28T02:59:46;5.50;;;2.00;;
60354;SDS011;46198;51.464;-0.066;2023-01-28T03:02:20;4.73;;;1.93;;
60354;SDS011;46198;51.464;-0.066;2023-01-28T03:04:57;6.83;;;2.50;;
60354;SDS011;46198;51.464;-0.066;2023-01-28T03:07:32;12.40;;;3.63;;
60354;SDS011;46198;51.464;-0.066;2023-01-28T03:10:03;9.57;;;2.72;;
60354;SDS011;46198;51.464;-0.066;2023-01-28T03:12:34;7.30;;;2.70;;
60354;SDS011;46198;51.464;-0.066;2023-01-28T03:15:26;5.40;;;1.97;;
60354;SDS011;46198;51.464;-0.066;2023-01-28T03:18:17;9.90;;;2.50;;
60354;SDS011;46198;51.464;-0.066;2023-01-28T03:21:07;6.88;;;2.17;;
60354;SDS011;46198;51.464;-0.066;2023-01-28T03:23:59;12.75;;;2.50;;
60354;SDS011;46198;51.464;-0.066;2023-01-28T03:26:53;3.67;;;1.67;;
60354;SDS011;46198;51.464;-0.066;2023-01-28T03:29:47;4.03;;;1.67;;
60354;SDS011;46198;51.464;-0.066;2023-01-28T03:32:37;4.50;;;1.70;;
60354;SDS011;46198;51.464;-0.066;2023-01-28T03:35:26;7.13;;;2.00;;
60354;SDS011;46198;51.464;-0.066;2023-01-28T03:38:15;5.33;;;2.00;;
60354;SDS011;46198;51.464;-0.066;2023-01-28T03:40:50;3.70;;;2.00;;
60354;SDS011;46198;51.464;-0.066;2023-01-28T03:43:18;4.47;;;1.60;;
60354;SDS011;46198;51.464;-0.066;2023-01-28T03:45:47;4.30;;;1.33;;
60354;SDS011;46198;51.464;-0.066;2023-01-28T03:48:18;2.13;;;1.50;;
60354;SDS011;46198;51.464;-0.066;2023-01-28T03:50:47;3.23;;;1.43;;
60354;SDS011;46198;51.464;-0.066;2023-01-28T03:53:16;3.57;;;1.50;;
60354;SDS011;46198;51.464;-0.066;2023-01-28T03:55:48;3.63;;;1.60;;
60354;SDS011;46198;51.464;-0.066;2023-01-28T03:58:18;7.03;;;2.20;;
60354;SDS011;46198;51.464;-0.066;2023-01-28T04:00:46;3.83;;;1.70;;
60354;SDS011;46198;51.464;-0.066;2023-01-28T04:03:16;3.53;;;1.90;;
60354;SDS011;46198;51.464;-0.066;2023-01-28T04:05:58;3.70;;;1.83;;
60354;SDS011;46198;51.464;-0.066;2023-01-28T04:08:47;3.67;;;1.80;;
60354;SDS011;46198;51.464;-0.066;2023-01-28T04:11:45;2.80;;;1.50;;
60354;SDS011;46198;51.464;-0.066;2023-01-28T04:14:19;3.63;;;1.80;;
60354;SDS011;46198;51.464;-0.066;2023-01-28T04:16:51;2.13;;;1.67;;
60354;SDS011;46198;51.464;-0.066;2023-01-28T04:22:19;5.23;;;1.97;;
60354;SDS011;46198;51.464;-0.066;2023-01-28T04:27:42;4.23;;;2.43;;
60354;SDS011;46198;51.464;-0.066;2023-01-28T04:30:17;7.50;;;2.70;;
60354;SDS011;46198;51.464;-0.066;2023-01-28T04:33:03;5.63;;;2.60;;
60354;SDS011;46198;51.464;-0.066;2023-01-28T04:35:38;3.60;;;2.67;;
60354;SDS011;46198;51.464;-0.066;2023-01-28T04:38:40;5.38;;;2.90;;
60354;SDS011;46198;51.464;-0.066;2023-01-28T04:41:37;5.63;;;2.77;;
60354;SDS011;46198;51.464;-0.066;2023-01-28T04:44:20;6.40;;;2.83;;
60354;SDS011;46198;51.464;-0.066;2023-01-28T04:47:14;5.87;;;2.70;;
60354;SDS011;46198;51.464;-0.066;2023-01-28T04:50:06;4.60;;;2.63;;
60354;SDS011;46198;51.464;-0.066;2023-01-28T04:52:41;4.97;;;2.93;;
60354;SDS011;46198;51.464;-0.066;2023-01-28T04:55:25;3.57;;;3.10;;
60354;SDS011;46198;51.464;-0.066;2023-01-28T04:57:53;4.87;;;2.77;;
60354;SDS011;46198;51.464;-0.066;2023-01-28T05:00:22;5.47;;;2.77;;
60354;SDS011;46198;51.464;-0.066;2023-01-28T05:02:50;4.73;;;2.60;;
60354;SDS011;46198;51.464;-0.066;2023-01-28T05:05:18;6.50;;;3.20;;
60354;SDS011;46198;51.464;-0.066;2023-01-28T05:07:56;7.27;;;3.20;;
60354;SDS011;46198;51.464;-0.066;2023-01-28T05:10:26;5.07;;;2.93;;
60354;SDS011;46198;51.464;-0.066;2023-01-28T05:12:54;9.17;;;3.20;;
60354;SDS011;46198;51.464;-0.066;2023-01-28T05:15:22;6.43;;;2.83;;
60354;SDS011;46198;51.464;-0.066;2023-01-28T05:17:53;8.10;;;3.23;;
60354;SDS011;46198;51.464;-0.066;2023-01-28T05:23:16;3.37;;;2.90;;
60354;SDS011;46198;51.464;-0.066;2023-01-28T05:25:51;6.70;;;3.67;;
60354;SDS011;46198;51.464;-0.066;2023-01-28T05:28:19;7.37;;;2.87;;
60354;SDS011;46198;51.464;-0.066;2023-01-28T05:30:47;6.63;;;3.80;;
60354;SDS011;46198;51.464;-0.066;2023-01-28T05:33:16;3.80;;;3.13;;
60354;SDS011;46198;51.464;-0.066;2023-01-28T05:35:45;7.90;;;3.27;;
60354;SDS011;46198;51.464;-0.066;2023-01-28T05:38:15;6.70;;;3.55;;
60354;SDS011;46198;51.464;-0.066;2023-01-28T05:40:43;3.30;;;2.90;;
60354;SDS011;46198;51.464;-0.066;2023-01-28T05:43:13;5.90;;;3.07;;
60354;SDS011;46198;51.464;-0.066;2023-01-28T05:46:00;5.93;;;3.33;;
60354;SDS011;46198;51.464;-0.066;2023-01-28T05:48:55;5.90;;;3.03;;
60354;SDS011;46198;51.464;-0.066;2023-01-28T05:51:41;6.67;;;3.60;;
60354;SDS011;46198;51.464;-0.066;2023-01-28T05:54:13;5.97;;;3.57;;
60354;SDS011;46198;51.464;-0.066;2023-01-28T05:56:41;5.87;;;3.00;;
60354;SDS011;46198;51.464;-0.066;2023-01-28T05:59:11;9.17;;;3.97;;
60354;SDS011;46198;51.464;-0.066;2023-01-28T06:01:41;8.00;;;4.13;;
60354;SDS011;46198;51.464;-0.066;2023-01-28T06:04:09;7.40;;;4.13;;
60354;SDS011;46198;51.464;-0.066;2023-01-28T06:06:38;4.93;;;3.50;;
60354;SDS011;46198;51.464;-0.066;2023-01-28T06:09:06;7.23;;;3.67;;
60354;SDS011;46198;51.464;-0.066;2023-01-28T06:11:34;5.27;;;3.17;;
60354;SDS011;46198;51.464;-0.066;2023-01-28T06:14:03;8.63;;;4.40;;
60354;SDS011;46198;51.464;-0.066;2023-01-28T06:16:50;7.57;;;4.07;;
60354;SDS011;46198;51.464;-0.066;2023-01-28T06:19:25;6.03;;;3.90;;
60354;SDS011;46198;51.464;-0.066;2023-01-28T06:25:37;6.23;;;3.17;;
60354;SDS011;46198;51.464;-0.066;2023-01-28T06:28:09;7.07;;;3.17;;
60354;SDS011;46198;51.464;-0.066;2023-01-28T06:30:37;4.83;;;3.50;;
60354;SDS011;46198;51.464;-0.066;2023-01-28T06:33:06;9.60;;;3.50;;
60354;SDS011;46198;51.464;-0.066;2023-01-28T06:35:34;7.27;;;2.97;;
60354;SDS011;46198;51.464;-0.066;2023-01-28T06:38:03;6.60;;;3.50;;
60354;SDS011;46198;51.464;-0.066;2023-01-28T06:40:32;10.63;;;3.70;;
60354;SDS011;46198;51.464;-0.066;2023-01-28T06:43:01;9.43;;;3.80;;
60354;SDS011;46198;51.464;-0.066;2023-01-28T06:45:29;6.37;;;3.30;;
60354;SDS011;46198;51.464;-0.066;2023-01-28T06:47:57;7.43;;;3.50;;
60354;SDS011;46198;51.464;-0.066;2023-01-28T06:50:27;9.00;;;3.90;;
60354;SDS011;46198;51.464;-0.066;2023-01-28T06:52:55;4.20;;;3.57;;
60354;SDS011;46198;51.464;-0.066;2023-01-28T06:55:23;7.07;;;3.73;;
60354;SDS011;46198;51.464;-0.066;2023-01-28T06:57:51;6.87;;;3.67;;
60354;SDS011;46198;51.464;-0.066;2023-01-28T07:03:37;6.57;;;3.40;;
60354;SDS011;46198;51.464;-0.066;2023-01-28T07:06:07;7.03;;;3.90;;
60354;SDS011;46198;51.464;-0.066;2023-01-28T07:08:35;9.70;;;3.67;;
60354;SDS011;46198;51.464;-0.066;2023-01-28T07:11:05;7.97;;;3.73;;
60354;SDS011;46198;51.464;-0.066;2023-01-28T07:13:33;6.00;;;3.30;;
60354;SDS011;46198;51.464;-0.066;2023-01-28T07:16:05;10.70;;;4.30;;
60354;SDS011;46198;51.464;-0.066;2023-01-28T07:18:34;4.53;;;3.97;;
60354;SDS011;46198;51.464;-0.066;2023-01-28T07:21:02;7.53;;;4.00;;
60354;SDS011;46198;51.464;-0.066;2023-01-28T07:23:32;8.37;;;4.20;;
60354;SDS011;46198;51.464;-0.066;2023-01-28T07:26:00;8.77;;;4.20;;
60354;SDS011;46198;51.464;-0.066;2023-01-28T07:28:29;6.57;;;3.70;;
60354;SDS011;46198;51.464;-0.066;2023-01-28T07:30:59;7.95;;;4.72;;
60354;SDS011;46198;51.464;-0.066;2023-01-28T07:33:27;9.63;;;4.43;;
60354;SDS011;46198;51.464;-0.066;2023-01-28T07:35:55;7.57;;;4.27;;
60354;SDS011;46198;51.464;-0.066;2023-01-28T07:38:23;8.93;;;5.03;;
60354;SDS011;46198;51.464;-0.066;2023-01-28T07:40:53;9.40;;;4.60;;
60354;SDS011;46198;51.464;-0.066;2023-01-28T07:43:21;8.73;;;4.73;;
60354;SDS011;46198;51.464;-0.066;2023-01-28T07:45:49;7.53;;;4.30;;
60354;SDS011;46198;51.464;-0.066;2023-01-28T07:48:17;6.13;;;4.30;;
60354;SDS011;46198;51.464;-0.066;2023-01-28T07:50:45;11.50;;;4.80;;
60354;SDS011;46198;51.464;-0.066;2023-01-28T07:53:15;8.43;;;4.90;;
60354;SDS011;46198;51.464;-0.066;2023-01-28T07:55:43;7.87;;;4.80;;
60354;SDS011;46198;51.464;-0.066;2023-01-28T07:58:12;6.93;;;4.43;;
60354;SDS011;46198;51.464;-0.066;2023-01-28T08:00:40;6.80;;;4.83;;
60354;SDS011;46198;51.464;-0.066;2023-01-28T08:03:10;10.70;;;5.60;;
60354;SDS011;46198;51.464;-0.066;2023-01-28T08:05:41;8.53;;;4.63;;
60354;SDS011;46198;51.464;-0.066;2023-01-28T08:10:41;15.07;;;5.43;;
60354;SDS011;46198;51.464;-0.066;2023-01-28T08:13:10;9.97;;;5.80;;
60354;SDS011;46198;51.464;-0.066;2023-01-28T08:15:41;8.10;;;5.07;;
60354;SDS011;46198;51.464;-0.066;2023-01-28T08:18:10;12.07;;;5.70;;
60354;SDS011;46198;51.464;-0.066;2023-01-28T08:20:39;9.93;;;5.25;;
60354;SDS011;46198;51.464;-0.066;2023-01-28T08:23:11;10.50;;;5.27;;
60354;SDS011;46198;51.464;-0.066;2023-01-28T08:25:40;7.00;;;4.93;;
60354;SDS011;46198;51.464;-0.066;2023-01-28T08:28:09;10.63;;;4.93;;
60354;SDS011;46198;51.464;-0.066;2023-01-28T08:30:38;14.50;;;5.57;;
60354;SDS011;46198;51.464;-0.066;2023-01-28T08:33:08;12.83;;;5.70;;
60354;SDS011;46198;51.464;-0.066;2023-01-28T08:35:39;10.30;;;6.07;;
60354;SDS011;46198;51.464;-0.066;2023-01-28T08:38:09;14.00;;;5.63;;
60354;SDS011;46198;51.464;-0.066;2023-01-28T08:40:38;12.10;;;5.95;;
60354;SDS011;46198;51.464;-0.066;2023-01-28T08:43:06;12.83;;;6.70;;
60354;SDS011;46198;51.464;-0.066;2023-01-28T08:45:34;13.80;;;7.73;;
60354;SDS011;46198;51.464;-0.066;2023-01-28T08:48:03;7.87;;;4.73;;
60354;SDS011;46198;51.464;-0.066;2023-01-28T08:50:35;10.93;;;5.50;;
60354;SDS011;46198;51.464;-0.066;2023-01-28T08:53:04;19.80;;;4.77;;
60354;SDS011;46198;51.464;-0.066;2023-01-28T08:55:35;8.30;;;4.67;;
60354;SDS011;46198;51.464;-0.066;2023-01-28T08:58:04;7.87;;;4.40;;
60354;SDS011;46198;51.464;-0.066;2023-01-28T09:00:34;9.27;;;4.57;;
60354;SDS011;46198;51.464;-0.066;2023-01-28T09:03:02;12.43;;;5.23;;
60354;SDS011;46198;51.464;-0.066;2023-01-28T09:05:36;11.60;;;4.63;;
60354;SDS011;46198;51.464;-0.066;2023-01-28T09:08:05;10.45;;;5.30;;
60354;SDS011;46198;51.464;-0.066;2023-01-28T09:10:35;10.57;;;5.20;;
60354;SDS011;46198;51.464;-0.066;2023-01-28T09:13:04;12.43;;;5.40;;
60354;SDS011;46198;51.464;-0.066;2023-01-28T09:15:33;8.93;;;5.20;;
60354;SDS011;46198;51.464;-0.066;2023-01-28T09:18:01;12.03;;;5.60;;
60354;SDS011;46198;51.464;-0.066;2023-01-28T09:20:29;11.60;;;5.87;;
60354;SDS011;46198;51.464;-0.066;2023-01-28T09:23:00;9.17;;;5.37;;
60354;SDS011;46198;51.464;-0.066;2023-01-28T09:25:28;10.93;;;5.93;;
60354;SDS011;46198;51.464;-0.066;2023-01-28T09:27:56;12.17;;;6.30;;
60354;SDS011;46198;51.464;-0.066;2023-01-28T09:30:25;9.73;;;5.17;;
60354;SDS011;46198;51.464;-0.066;2023-01-28T09:32:53;8.57;;;5.37;;
60354;SDS011;46198;51.464;-0.066;2023-01-28T09:35:23;8.10;;;5.55;;
60354;SDS011;46198;51.464;-0.066;2023-01-28T09:37:55;13.17;;;5.80;;
60354;SDS011;46198;51.464;-0.066;2023-01-28T09:40:27;8.47;;;4.83;;
60354;SDS011;46198;51.464;-0.066;2023-01-28T09:43:02;10.50;;;6.00;;
60354;SDS011;46198;51.464;-0.066;2023-01-28T09:45:41;8.53;;;5.20;;
60354;SDS011;46198;51.464;-0.066;2023-01-28T09:48:14;11.63;;;5.70;;
60354;SDS011;46198;51.464;-0.066;2023-01-28T09:50:45;11.63;;;5.90;;
60354;SDS011;46198;51.464;-0.066;2023-01-28T09:53:17;10.27;;;5.97;;
60354;SDS011;46198;51.464;-0.066;2023-01-28T09:55:50;15.67;;;6.77;;
60354;SDS011;46198;51.464;-0.066;2023-01-28T09:58:22;10.67;;;6.50;;
60354;SDS011;46198;51.464;-0.066;2023-01-28T10:00:52;17.60;;;7.27;;
60354;SDS011;46198;51.464;-0.066;2023-01-28T10:03:35;13.33;;;7.10;;
60354;SDS011;46198;51.464;-0.066;2023-01-28T10:06:17;14.70;;;6.30;;
60354;SDS011;46198;51.464;-0.066;2023-01-28T10:08:58;11.55;;;6.88;;
60354;SDS011;46198;51.464;-0.066;2023-01-28T10:18:28;11.77;;;6.50;;
60354;SDS011;46198;51.464;-0.066;2023-01-28T10:21:01;14.63;;;7.57;;
60354;SDS011;46198;51.464;-0.066;2023-01-28T10:23:45;17.23;;;7.67;;
60354;SDS011;46198;51.464;-0.066;2023-01-28T10:26:21;12.73;;;7.17;;
60354;SDS011;46198;51.464;-0.066;2023-01-28T10:28:52;26.23;;;12.60;;
60354;SDS011;46198;51.464;-0.066;2023-01-28T10:31:24;13.07;;;8.60;;
60354;SDS011;46198;51.464;-0.066;2023-01-28T10:34:00;12.83;;;7.50;;
60354;SDS011;46198;51.464;-0.066;2023-01-28T10:36:30;15.83;;;7.60;;
60354;SDS011;46198;51.464;-0.066;2023-01-28T10:38:58;16.37;;;9.20;;
60354;SDS011;46198;51.464;-0.066;2023-01-28T10:41:26;17.80;;;7.93;;
60354;SDS011;46198;51.464;-0.066;2023-01-28T10:43:55;16.13;;;8.50;;
60354;SDS011;46198;51.464;-0.066;2023-01-28T10:46:25;14.77;;;8.37;;
60354;SDS011;46198;51.464;-0.066;2023-01-28T10:48:57;16.00;;;9.13;;
60354;SDS011;46198;51.464;-0.066;2023-01-28T10:51:34;15.67;;;7.97;;
60354;SDS011;46198;51.464;-0.066;2023-01-28T10:54:13;20.53;;;9.27;;
60354;SDS011;46198;51.464;-0.066;2023-01-28T10:56:46;20.50;;;10.23;;
60354;SDS011;46198;51.464;-0.066;2023-01-28T10:59:19;18.77;;;8.60;;
60354;SDS011;46198;51.464;-0.066;2023-01-28T11:01:49;23.63;;;9.63;;
60354;SDS011;46198;51.464;-0.066;2023-01-28T11:04:22;16.42;;;9.38;;
60354;SDS011;46198;51.464;-0.066;2023-01-28T11:06:57;18.27;;;10.43;;
60354;SDS011;46198;51.464;-0.066;2023-01-28T11:09:27;23.80;;;10.93;;
60354;SDS011;46198;51.464;-0.066;2023-01-28T11:11:57;20.88;;;9.63;;
60354;SDS011;46198;51.464;-0.066;2023-01-28T11:14:26;18.40;;;9.07;;
60354;SDS011;46198;51.464;-0.066;2023-01-28T11:19:51;19.40;;;9.83;;
60354;SDS011;46198;51.464;-0.066;2023-01-28T11:22:23;21.73;;;11.63;;
60354;SDS011;46198;51.464;-0.066;2023-01-28T11:24:58;22.90;;;9.93;;
60354;SDS011;46198;51.464;-0.066;2023-01-28T11:27:28;18.23;;;9.00;;
60354;SDS011;46198;51.464;-0.066;2023-01-28T11:29:59;20.25;;;9.70;;
60354;SDS011;46198;51.464;-0.066;2023-01-28T11:32:30;17.07;;;9.47;;
60354;SDS011;46198;51.464;-0.066;2023-01-28T11:34:59;13.03;;;8.63;;
60354;SDS011;46198;51.464;-0.066;2023-01-28T11:37:28;17.83;;;9.23;;
60354;SDS011;46198;51.464;-0.066;2023-01-28T11:40:00;17.63;;;10.17;;
60354;SDS011;46198;51.464;-0.066;2023-01-28T11:42:30;17.53;;;9.37;;
60354;SDS011;46198;51.464;-0.066;2023-01-28T11:44:58;17.10;;;8.53;;
60354;SDS011;46198;51.464;-0.066;2023-01-28T11:50:48;19.90;;;9.60;;
60354;SDS011;46198;51.464;-0.066;2023-01-28T11:53:27;13.60;;;8.30;;
60354;SDS011;46198;51.464;-0.066;2023-01-28T11:56:11;19.00;;;8.73;;
60354;SDS011;46198;51.464;-0.066;2023-01-28T11:59:05;17.47;;;8.53;;
60354;SDS011;46198;51.464;-0.066;2023-01-28T12:01:47;12.43;;;8.40;;
60354;SDS011;46198;51.464;-0.066;2023-01-28T12:04:32;13.23;;;8.67;;
60354;SDS011;46198;51.464;-0.066;2023-01-28T12:07:19;12.67;;;8.60;;
60354;SDS011;46198;51.464;-0.066;2023-01-28T12:10:01;17.20;;;8.73;;
60354;SDS011;46198;51.464;-0.066;2023-01-28T12:12:43;18.30;;;9.33;;
60354;SDS011;46198;51.464;-0.066;2023-01-28T12:18:18;14.10;;;8.80;;
60354;SDS011;46198;51.464;-0.066;2023-01-28T12:20:59;14.57;;;9.30;;
60354;SDS011;46198;51.464;-0.066;2023-01-28T12:23:37;15.40;;;7.73;;
60354;SDS011;46198;51.464;-0.066;2023-01-28T12:26:18;11.10;;;8.03;;
60354;SDS011;46198;51.464;-0.066;2023-01-28T12:28:58;21.73;;;10.10;;
60354;SDS011;46198;51.464;-0.066;2023-01-28T12:31:41;18.07;;;9.80;;
60354;SDS011;46198;51.464;-0.066;2023-01-28T12:34:24;14.37;;;8.83;;
60354;SDS011;46198;51.464;-0.066;2023-01-28T12:37:09;18.27;;;10.77;;
60354;SDS011;46198;51.464;-0.066;2023-01-28T12:39:50;20.00;;;9.60;;
60354;SDS011;46198;51.464;-0.066;2023-01-28T12:42:32;16.43;;;9.30;;
60354;SDS011;46198;51.464;-0.066;2023-01-28T12:45:09;15.60;;;8.30;;
60354;SDS011;46198;51.464;-0.066;2023-01-28T12:47:44;27.93;;;13.57;;
60354;SDS011;46198;51.464;-0.066;2023-01-28T12:50:19;16.50;;;10.03;;
60354;SDS011;46198;51.464;-0.066;2023-01-28T12:52:52;17.80;;;9.60;;
60354;SDS011;46198;51.464;-0.066;2023-01-28T12:55:29;15.00;;;8.83;;
60354;SDS011;46198;51.464;-0.066;2023-01-28T12:58:06;14.87;;;9.27;;
60354;SDS011;46198;51.464;-0.066;2023-01-28T13:00:45;16.70;;;8.67;;
60354;SDS011;46198;51.464;-0.066;2023-01-28T13:03:18;14.10;;;8.60;;
60354;SDS011;46198;51.464;-0.066;2023-01-28T13:06:01;22.37;;;11.50;;
60354;SDS011;46198;51.464;-0.066;2023-01-28T13:08:35;26.07;;;12.03;;
60354;SDS011;46198;51.464;-0.066;2023-01-28T13:11:05;17.90;;;10.27;;
60354;SDS011;46198;51.464;-0.066;2023-01-28T13:13:41;17.60;;;10.37;;
60354;SDS011;46198;51.464;-0.066;2023-01-28T13:16:11;13.85;;;8.98;;
60354;SDS011;46198;51.464;-0.066;2023-01-28T13:18:42;17.53;;;9.20;;
60354;SDS011;46198;51.464;-0.066;2023-01-28T13:21:13;18.00;;;9.53;;
60354;SDS011;46198;51.464;-0.066;2023-01-28T13:23:43;11.90;;;7.70;;
60354;SDS011;46198;51.464;-0.066;2023-01-28T13:26:35;15.27;;;8.93;;
60354;SDS011;46198;51.464;-0.066;2023-01-28T13:29:17;18.47;;;9.10;;
60354;SDS011;46198;51.464;-0.066;2023-01-28T13:31:48;14.03;;;8.90;;
60354;SDS011;46198;51.464;-0.066;2023-01-28T13:34:26;16.73;;;9.37;;
60354;SDS011;46198;51.464;-0.066;2023-01-28T13:37:00;13.90;;;8.13;;
60354;SDS011;46198;51.464;-0.066;2023-01-28T13:39:32;12.37;;;7.90;;
60354;SDS011;46198;51.464;-0.066;2023-01-28T13:42:18;17.98;;;9.63;;
60354;SDS011;46198;51.464;-0.066;2023-01-28T13:44:50;15.40;;;8.90;;
60354;SDS011;46198;51.464;-0.066;2023-01-28T13:47:21;20.87;;;10.30;;
60354;SDS011;46198;51.464;-0.066;2023-01-28T13:49:55;19.00;;;10.30;;
60354;SDS011;46198;51.464;-0.066;2023-01-28T13:52:27;18.57;;;9.77;;
60354;SDS011;46198;51.464;-0.066;2023-01-28T13:55:01;15.47;;;9.33;;
60354;SDS011;46198;51.464;-0.066;2023-01-28T14:01:05;16.77;;;9.00;;
60354;SDS011;46198;51.464;-0.066;2023-01-28T14:10:16;19.50;;;9.73;;
60354;SDS011;46198;51.464;-0.066;2023-01-28T14:13:05;20.40;;;10.80;;
60354;SDS011;46198;51.464;-0.066;2023-01-28T14:15:56;38.47;;;20.87;;
60354;SDS011;46198;51.464;-0.066;2023-01-28T14:18:33;12.27;;;7.97;;
60354;SDS011;46198;51.464;-0.066;2023-01-28T14:21:08;12.27;;;8.03;;
60354;SDS011;46198;51.464;-0.066;2023-01-28T14:23:43;16.27;;;8.87;;
60354;SDS011;46198;51.464;-0.066;2023-01-28T14:26:19;14.77;;;7.80;;
60354;SDS011;46198;51.464;-0.066;2023-01-28T14:29:01;14.00;;;8.37;;
60354;SDS011;46198;51.464;-0.066;2023-01-28T14:31:39;17.13;;;8.23;;
60354;SDS011;46198;51.464;-0.066;2023-01-28T14:34:18;11.10;;;7.37;;
60354;SDS011;46198;51.464;-0.066;2023-01-28T14:36:51;13.63;;;6.97;;
60354;SDS011;46198;51.464;-0.066;2023-01-28T14:39:23;12.07;;;6.80;;
60354;SDS011;46198;51.464;-0.066;2023-01-28T14:41:54;9.80;;;5.57;;
60354;SDS011;46198;51.464;-0.066;2023-01-28T14:44:27;15.80;;;7.93;;
60354;SDS011;46198;51.464;-0.066;2023-01-28T14:50:21;10.07;;;6.23;;
60354;SDS011;46198;51.464;-0.066;2023-01-28T14:53:03;14.20;;;7.13;;
60354;SDS011;46198;51.464;-0.066;2023-01-28T14:55:49;16.13;;;9.27;;
60354;SDS011;46198;51.464;-0.066;2023-01-28T14:58:22;17.63;;;9.53;;
60354;SDS011;46198;51.464;-0.066;2023-01-28T15:00:54;20.47;;;9.77;;
60354;SDS011;46198;51.464;-0.066;2023-01-28T15:03:25;17.45;;;9.60;;
60354;SDS011;46198;51.464;-0.066;2023-01-28T15:06:05;14.53;;;8.50;;
60354;SDS011;46198;51.464;-0.066;2023-01-28T15:08:42;16.90;;;9.07;;
60354;SDS011;46198;51.464;-0.066;2023-01-28T15:13:40;18.10;;;9.77;;
60354;SDS011;46198;51.464;-0.066;2023-01-28T15:16:14;17.13;;;9.97;;
60354;SDS011;46198;51.464;-0.066;2023-01-28T15:18:44;22.97;;;13.10;;
60354;SDS011;46198;51.464;-0.066;2023-01-28T15:21:18;15.10;;;9.33;;
60354;SDS011;46198;51.464;-0.066;2023-01-28T15:23:48;18.33;;;9.30;;
60354;SDS011;46198;51.464;-0.066;2023-01-28T15:26:19;17.30;;;10.00;;
60354;SDS011;46198;51.464;-0.066;2023-01-28T15:28:49;20.93;;;10.37;;
60354;SDS011;46198;51.464;-0.066;2023-01-28T15:31:19;19.70;;;9.80;;
60354;SDS011;46198;51.464;-0.066;2023-01-28T15:33:54;20.13;;;10.63;;
60354;SDS011;46198;51.464;-0.066;2023-01-28T15:36:25;20.57;;;9.87;;
60354;SDS011;46198;51.464;-0.066;2023-01-28T15:38:53;17.57;;;10.53;;
60354;SDS011;46198;51.464;-0.066;2023-01-28T15:41:22;18.10;;;10.73;;
60354;SDS011;46198;51.464;-0.066;2023-01-28T15:43:54;17.73;;;9.63;;
60354;SDS011;46198;51.464;-0.066;2023-01-28T15:46:22;18.93;;;10.97;;
60354;SDS011;46198;51.464;-0.066;2023-01-28T15:48:52;16.40;;;10.13;;
60354;SDS011;46198;51.464;-0.066;2023-01-28T15:51:27;19.93;;;10.93;;
60354;SDS011;46198;51.464;-0.066;2023-01-28T15:53:58;20.43;;;10.60;;